createdAt,value
2023-01-12T00:01:43.828Z,26.80
2023-01-12T00:04:14.255Z,25.70
2023-01-12T00:06:41.244Z,28.10
2023-01-12T00:09:08.274Z,21.10
2023-01-12T00:11:36.050Z,27.70
2023-01-12T00:14:03.404Z,20.40
2023-01-12T00:16:39.775Z,27.40
2023-01-12T00:19:13.754Z,22.90
2023-01-12T00:21:53.834Z,25.60
2023-01-12T00:24:20.995Z,23.80
2023-01-12T00:26:48.454Z,24.90
2023-01-12T00:29:16.488Z,28.80
2023-01-12T00:31:43.663Z,24.10
2023-01-12T00:34:10.640Z,24.50
2023-01-12T00:36:37.552Z,22.30
2023-01-12T00:39:04.997Z,21.00
2023-01-12T00:41:50.631Z,23.10
2023-01-12T00:44:36.207Z,22.20
2023-01-12T00:47:03.040Z,21.90
2023-01-12T00:49:30.039Z,21.20
2023-01-12T00:51:56.882Z,24.20
2023-01-12T00:54:23.699Z,28.60
2023-01-12T00:56:50.533Z,24.00
2023-01-12T00:59:17.530Z,26.10
2023-01-12T01:01:44.460Z,19.20
2023-01-12T01:04:11.541Z,33.00
2023-01-12T01:06:39.162Z,32.40
2023-01-12T01:09:06.169Z,27.00
2023-01-12T01:11:33.158Z,26.80
2023-01-12T01:14:00.181Z,21.10
2023-01-12T01:16:27.036Z,25.40
2023-01-12T01:18:54.088Z,28.80
2023-01-12T01:21:21.153Z,26.90
2023-01-12T01:23:48.068Z,24.40
2023-01-12T01:26:17.243Z,29.30
2023-01-12T01:28:44.308Z,24.30
2023-01-12T01:31:16.139Z,28.00
2023-01-12T01:33:43.391Z,20.10
2023-01-12T01:36:10.656Z,20.90
2023-01-12T01:38:37.633Z,22.30
2023-01-12T01:41:05.544Z,26.70
2023-01-12T01:43:49.239Z,19.80
2023-01-12T01:46:17.369Z,23.90
2023-01-12T01:48:44.339Z,23.50
2023-01-12T01:51:12.820Z,20.80
2023-01-12T01:53:40.507Z,22.40
2023-01-12T01:56:27.959Z,25.30
2023-01-12T01:58:57.854Z,20.80
2023-01-12T02:01:24.914Z,19.70
2023-01-12T02:03:52.516Z,23.10
2023-01-12T02:06:19.468Z,23.70
2023-01-12T02:09:01.572Z,21.00
2023-01-12T02:11:47.167Z,17.70
2023-01-12T02:14:32.945Z,19.60
2023-01-12T02:17:02.782Z,18.40
2023-01-12T02:19:48.747Z,21.90
2023-01-12T02:22:36.269Z,17.60
2023-01-12T02:25:10.933Z,21.30
2023-01-12T02:28:13.467Z,22.60
2023-01-12T02:30:58.686Z,19.80
2023-01-12T02:33:49.125Z,22.80
2023-01-12T02:36:34.492Z,19.60
2023-01-12T02:39:13.211Z,19.90
2023-01-12T02:42:13.119Z,22.10
2023-01-12T02:44:43.361Z,17.90
2023-01-12T02:47:15.654Z,19.30
2023-01-12T02:49:45.137Z,20.80
2023-01-12T02:52:14.153Z,19.40
2023-01-12T02:54:40.990Z,16.30
2023-01-12T02:57:08.751Z,19.30
2023-01-12T02:59:37.381Z,20.50
2023-01-12T03:02:15.172Z,20.30
2023-01-12T03:04:42.420Z,15.70
2023-01-12T03:07:15.521Z,24.10
2023-01-12T03:09:45.630Z,15.00
2023-01-12T03:12:15.060Z,22.30
2023-01-12T03:14:44.406Z,16.50
2023-01-12T03:17:14.862Z,22.70
2023-01-12T03:19:41.671Z,23.40
2023-01-12T03:22:10.845Z,17.10
2023-01-12T03:24:39.844Z,14.70
2023-01-12T03:27:10.109Z,19.00
2023-01-12T03:29:43.441Z,15.20
2023-01-12T03:32:10.294Z,16.00
2023-01-12T03:34:37.167Z,20.00
2023-01-12T03:37:12.856Z,17.60
2023-01-12T03:39:50.483Z,15.30
2023-01-12T03:42:36.326Z,17.40
2023-01-12T03:45:34.365Z,19.80
2023-01-12T03:48:15.893Z,13.10
2023-01-12T03:50:55.104Z,19.30
2023-01-12T03:53:22.029Z,15.70
2023-01-12T03:55:50.647Z,19.30
2023-01-12T03:58:17.810Z,19.30
2023-01-12T04:00:44.689Z,14.90
2023-01-12T04:03:13.195Z,16.20
2023-01-12T04:05:40.642Z,12.70
2023-01-12T04:08:08.007Z,14.70
2023-01-12T04:10:35.242Z,14.90
2023-01-12T04:13:02.391Z,15.30
2023-01-12T04:15:29.347Z,13.60
2023-01-12T04:17:56.398Z,16.00
2023-01-12T04:20:23.559Z,14.00
2023-01-12T04:22:50.512Z,14.00
2023-01-12T04:25:19.512Z,14.90
2023-01-12T04:28:05.092Z,15.90
2023-01-12T04:30:32.802Z,13.10
2023-01-12T04:33:00.063Z,13.90
2023-01-12T04:35:27.770Z,16.30
2023-01-12T04:37:55.009Z,16.30
2023-01-12T04:40:22.003Z,26.20
2023-01-12T04:43:02.305Z,20.90
2023-01-12T04:45:30.718Z,19.50
2023-01-12T04:48:02.877Z,21.40
2023-01-12T04:50:30.185Z,17.60
2023-01-12T04:52:57.673Z,20.40
2023-01-12T04:55:24.951Z,17.40
2023-01-12T04:57:51.820Z,14.90
2023-01-12T05:00:19.516Z,17.80
2023-01-12T05:02:46.593Z,22.40
2023-01-12T05:05:13.540Z,18.10
2023-01-12T05:08:03.255Z,17.00
2023-01-12T05:10:30.226Z,22.70
2023-01-12T05:12:57.332Z,20.60
2023-01-12T05:15:24.213Z,20.40
2023-01-12T05:17:51.445Z,19.20
2023-01-12T05:20:18.261Z,21.40
2023-01-12T05:22:45.258Z,15.80
2023-01-12T05:25:12.230Z,24.60
2023-01-12T05:27:39.088Z,22.10
2023-01-12T05:30:06.984Z,19.80
2023-01-12T05:32:38.499Z,20.00
2023-01-12T05:35:09.232Z,21.90
2023-01-12T05:37:36.060Z,19.30
2023-01-12T05:40:03.087Z,20.10
2023-01-12T05:42:48.797Z,22.10
2023-01-12T05:45:15.727Z,25.20
2023-01-12T05:47:42.734Z,23.30
2023-01-12T05:50:10.360Z,21.90
2023-01-12T05:52:37.295Z,21.00
2023-01-12T05:55:05.195Z,17.80
2023-01-12T05:57:32.212Z,25.20
2023-01-12T05:59:59.243Z,22.10
2023-01-12T06:02:26.358Z,23.90
2023-01-12T06:04:53.507Z,21.40
2023-01-12T06:07:20.539Z,19.80
2023-01-12T06:09:47.570Z,20.90
2023-01-12T06:12:33.357Z,18.20
2023-01-12T06:15:00.255Z,16.90
2023-01-12T06:17:27.268Z,22.50
2023-01-12T06:19:54.208Z,21.30
2023-01-12T06:22:21.171Z,20.30
2023-01-12T06:24:49.383Z,21.90
2023-01-12T06:27:16.777Z,17.20
2023-01-12T06:29:43.811Z,16.10
2023-01-12T06:32:10.723Z,19.60
2023-01-12T06:34:37.897Z,18.10
2023-01-12T06:37:05.361Z,22.20
2023-01-12T06:39:32.285Z,19.70
2023-01-12T06:42:18.094Z,17.30
2023-01-12T06:44:45.094Z,21.60
2023-01-12T06:47:12.024Z,20.40
2023-01-12T06:49:38.965Z,20.30
2023-01-12T06:52:06.974Z,24.00
2023-01-12T06:54:33.865Z,27.10
2023-01-12T06:57:00.828Z,24.70
2023-01-12T06:59:27.790Z,22.70
2023-01-12T07:01:54.779Z,25.00
2023-01-12T07:04:21.808Z,23.30
2023-01-12T07:06:48.741Z,26.30
2023-01-12T07:09:15.700Z,28.00
2023-01-12T07:11:42.647Z,30.90
2023-01-12T07:14:09.498Z,35.80
2023-01-12T07:16:36.380Z,34.40
2023-01-12T07:19:03.338Z,41.00
2023-01-12T07:21:30.248Z,31.50
2023-01-12T07:23:57.206Z,37.80
2023-01-12T07:26:24.129Z,39.50
2023-01-12T07:28:51.010Z,37.70
2023-01-12T07:31:19.697Z,40.40
2023-01-12T07:33:46.782Z,38.70
2023-01-12T07:36:13.718Z,39.60
2023-01-12T07:38:42.717Z,44.90
2023-01-12T07:41:29.561Z,38.00
2023-01-12T07:43:59.340Z,40.30
2023-01-12T07:46:26.369Z,44.90
2023-01-12T07:48:53.459Z,45.00
2023-01-12T07:51:20.411Z,44.70
2023-01-12T07:53:48.289Z,45.80
2023-01-12T07:56:16.339Z,42.40
2023-01-12T07:58:43.532Z,45.80
2023-01-12T08:01:10.552Z,47.00
2023-01-12T08:03:43.250Z,44.10
2023-01-12T08:06:10.232Z,46.90
2023-01-12T08:08:37.143Z,51.70
2023-01-12T08:11:08.757Z,45.90
2023-01-12T08:13:35.995Z,57.70
2023-01-12T08:16:14.982Z,49.00
2023-01-12T08:18:47.034Z,44.90
2023-01-12T08:21:15.851Z,51.40
2023-01-12T08:23:47.641Z,56.20
2023-01-12T08:26:17.131Z,47.60
2023-01-12T08:28:46.701Z,56.10
2023-01-12T08:31:14.218Z,62.50
2023-01-12T08:33:42.079Z,57.10
2023-01-12T08:38:37.560Z,63.80
2023-01-12T08:41:23.352Z,54.30
2023-01-12T08:44:02.322Z,59.90
2023-01-12T08:46:47.502Z,66.30
2023-01-12T08:49:16.792Z,57.30
2023-01-12T08:51:44.674Z,54.60
2023-01-12T08:54:12.799Z,66.50
2023-01-12T08:56:39.780Z,57.30
2023-01-12T08:59:06.850Z,50.00
2023-01-12T09:01:34.208Z,52.20
2023-01-12T09:04:01.565Z,48.50
2023-01-12T09:06:40.321Z,48.50
2023-01-12T09:09:10.044Z,42.00
2023-01-12T09:11:37.826Z,45.20
2023-01-12T09:14:05.257Z,45.60
2023-01-12T09:16:33.163Z,42.30
2023-01-12T09:19:00.066Z,52.90
2023-01-12T09:21:27.819Z,41.30
2023-01-12T09:23:55.195Z,46.10
2023-01-12T09:26:24.056Z,48.40
2023-01-12T09:28:51.786Z,53.50
2023-01-12T09:31:20.353Z,44.80
2023-01-12T09:33:47.494Z,42.90
2023-01-12T09:36:15.064Z,42.50
2023-01-12T09:38:42.941Z,42.80
2023-01-12T09:41:43.658Z,44.10
2023-01-12T09:44:59.609Z,38.60
2023-01-12T09:50:13.601Z,41.50
2023-01-12T09:52:46.693Z,38.40
2023-01-12T09:55:22.139Z,45.80
2023-01-12T09:58:01.267Z,38.40
2023-01-12T10:00:28.367Z,40.60
2023-01-12T10:03:07.595Z,35.00
2023-01-12T10:05:47.505Z,43.40
2023-01-12T10:08:28.173Z,39.50
2023-01-12T10:11:14.155Z,35.80
2023-01-12T10:13:56.522Z,31.40
2023-01-12T10:17:25.747Z,38.60
2023-01-12T10:20:09.762Z,41.10
2023-01-12T10:22:56.161Z,26.10
2023-01-12T10:25:28.140Z,35.10
2023-01-12T10:27:57.243Z,36.00
2023-01-12T10:30:38.217Z,45.10
2023-01-12T10:33:25.117Z,36.80
2023-01-12T10:35:55.242Z,34.70
2023-01-12T10:38:24.551Z,37.30
2023-01-12T10:41:12.130Z,33.90
2023-01-12T10:43:40.458Z,30.10
2023-01-12T10:46:18.292Z,37.00
2023-01-12T10:48:48.585Z,35.60
2023-01-12T10:51:23.107Z,42.70
2023-01-12T10:53:54.973Z,36.00
2023-01-12T10:56:31.458Z,43.20
2023-01-12T10:59:01.160Z,45.40
2023-01-12T11:01:45.919Z,38.00
2023-01-12T11:04:15.418Z,44.30
2023-01-12T11:06:44.272Z,42.50
2023-01-12T11:09:19.535Z,37.90
2023-01-12T11:11:46.511Z,40.10
2023-01-12T11:14:24.206Z,36.80
2023-01-12T11:16:51.296Z,46.00
2023-01-12T11:19:19.440Z,47.90
2023-01-12T11:21:55.403Z,44.90
2023-01-12T11:24:33.793Z,37.00
2023-01-12T11:27:29.861Z,38.40
2023-01-12T11:30:07.862Z,44.90
2023-01-12T11:32:46.956Z,52.80
2023-01-12T11:35:58.631Z,49.60
2023-01-12T11:38:50.760Z,39.60
2023-01-12T11:41:23.895Z,50.30
2023-01-12T11:43:56.216Z,46.20
2023-01-12T11:46:30.292Z,44.70
2023-01-12T11:49:10.266Z,39.40
2023-01-12T11:51:37.440Z,47.60
2023-01-12T11:54:06.439Z,47.60
2023-01-12T11:56:45.899Z,47.10
2023-01-12T11:59:39.314Z,45.90
2023-01-12T12:02:33.693Z,39.80
2023-01-12T12:05:20.468Z,45.60
2023-01-12T12:08:06.202Z,43.70
2023-01-12T12:10:37.162Z,38.60
2023-01-12T12:13:26.919Z,42.40
2023-01-12T12:16:02.911Z,47.20
2023-01-12T12:18:58.181Z,42.10
2023-01-12T12:24:19.806Z,48.10
2023-01-12T12:27:05.799Z,52.20
2023-01-12T12:30:30.585Z,43.80
2023-01-12T12:33:06.499Z,46.60
2023-01-12T12:35:42.699Z,51.50
2023-01-12T12:38:22.948Z,55.90
2023-01-12T12:41:47.410Z,45.60
2023-01-12T12:44:52.228Z,53.50
2023-01-12T12:47:42.215Z,61.10
2023-01-12T12:50:34.327Z,60.90
2023-01-12T12:53:14.923Z,55.00
2023-01-12T12:55:42.257Z,53.50
2023-01-12T12:58:21.594Z,60.30
2023-01-12T13:00:52.754Z,55.60
2023-01-12T13:03:41.387Z,46.20
2023-01-12T13:06:16.044Z,65.90
2023-01-12T13:08:43.203Z,55.20
2023-01-12T13:11:10.879Z,47.20
2023-01-12T13:13:38.423Z,58.60
2023-01-12T13:16:11.720Z,58.80
2023-01-12T13:18:43.873Z,54.30
2023-01-12T13:21:43.371Z,56.30
2023-01-12T13:24:10.241Z,56.10
2023-01-12T13:26:39.418Z,53.70
2023-01-12T13:29:28.301Z,60.90
2023-01-12T13:31:58.824Z,55.20
2023-01-12T13:34:46.318Z,53.20
2023-01-12T13:37:31.710Z,53.80
2023-01-12T13:40:04.068Z,63.60
2023-01-12T13:42:49.859Z,58.50
2023-01-12T13:45:17.893Z,53.90
2023-01-12T13:47:45.604Z,50.00
2023-01-12T13:50:39.069Z,56.60
2023-01-12T13:53:06.129Z,53.40
2023-01-12T13:55:33.687Z,56.40
2023-01-12T13:58:02.685Z,58.40
2023-01-12T14:00:31.416Z,58.20
2023-01-12T14:02:58.775Z,56.70
2023-01-12T14:05:34.863Z,46.40
2023-01-12T14:08:39.592Z,54.30
2023-01-12T14:11:22.245Z,54.30
2023-01-12T14:14:31.069Z,54.90
2023-01-12T14:17:16.851Z,59.60
2023-01-12T14:19:50.238Z,47.70
2023-01-12T14:22:18.522Z,66.00
2023-01-12T14:24:45.418Z,56.60
2023-01-12T14:27:21.951Z,61.00
2023-01-12T14:29:49.258Z,57.10
2023-01-12T14:32:16.276Z,64.80
2023-01-12T14:34:49.270Z,59.50
2023-01-12T14:37:32.375Z,66.20
2023-01-12T14:39:59.265Z,54.20
2023-01-12T14:42:44.906Z,65.60
2023-01-12T14:45:42.086Z,68.30
2023-01-12T14:48:29.208Z,69.90
2023-01-12T14:51:20.566Z,69.80
2023-01-12T14:53:48.182Z,56.60
2023-01-12T14:56:24.207Z,55.30
2023-01-12T14:58:51.089Z,55.80
2023-01-12T15:01:38.516Z,70.90
2023-01-12T15:04:07.000Z,53.20
2023-01-12T15:06:42.510Z,63.20
2023-01-12T15:09:29.358Z,64.10
2023-01-12T15:11:58.842Z,85.90
2023-01-12T15:14:40.752Z,66.70
2023-01-12T15:17:29.813Z,70.70
2023-01-12T15:20:15.698Z,63.70
2023-01-12T15:23:04.391Z,62.70
2023-01-12T15:25:45.439Z,69.60
2023-01-12T15:28:14.005Z,60.30
2023-01-12T15:30:48.240Z,62.30
2023-01-12T15:33:17.149Z,61.50
2023-01-12T15:35:46.189Z,57.70
2023-01-12T15:38:16.827Z,55.60
2023-01-12T15:40:45.319Z,60.70
2023-01-12T15:43:21.819Z,55.60
2023-01-12T15:45:49.216Z,55.40
2023-01-12T15:48:17.715Z,60.80
2023-01-12T15:50:47.842Z,59.90
2023-01-12T15:53:17.582Z,55.30
2023-01-12T15:55:47.706Z,50.80
2023-01-12T15:58:26.698Z,47.90
2023-01-12T16:00:54.048Z,51.40
2023-01-12T16:03:54.507Z,47.90
2023-01-12T16:06:08.757Z,47.20
2023-01-12T16:11:28.139Z,44.10
2023-01-12T16:14:00.618Z,43.30
2023-01-12T16:19:26.214Z,41.50
2023-01-12T16:21:57.878Z,42.00
2023-01-12T16:24:27.105Z,45.00
2023-01-12T16:26:54.213Z,40.40
2023-01-12T16:29:24.375Z,38.60
2023-01-12T16:31:56.178Z,38.60
2023-01-12T16:34:24.585Z,40.50
2023-01-12T16:37:00.882Z,43.50
2023-01-12T16:39:35.062Z,45.50
2023-01-12T16:42:05.589Z,50.10
2023-01-12T16:44:39.675Z,46.50
2023-01-12T16:47:14.631Z,53.70
2023-01-12T16:49:44.948Z,49.20
2023-01-12T16:52:15.091Z,50.80
2023-01-12T16:54:43.893Z,45.50
2023-01-12T16:57:19.964Z,35.00
2023-01-12T16:59:49.910Z,44.40
2023-01-12T17:02:21.579Z,35.50
2023-01-12T17:04:52.964Z,38.30
2023-01-12T17:10:07.641Z,31.10
2023-01-12T17:12:35.723Z,34.40
2023-01-12T17:15:07.857Z,40.60
2023-01-12T17:17:42.530Z,37.10
2023-01-12T17:20:16.429Z,41.10
2023-01-12T17:22:44.275Z,40.50
2023-01-12T17:25:11.678Z,38.50
2023-01-12T17:27:38.592Z,42.60
2023-01-12T17:30:06.530Z,47.20
2023-01-12T17:32:33.465Z,44.20
2023-01-12T17:35:01.942Z,46.90
2023-01-12T17:37:29.367Z,45.40
2023-01-12T17:39:56.300Z,49.40
2023-01-12T17:42:42.052Z,47.70
2023-01-12T17:45:09.894Z,50.10
2023-01-12T17:47:37.203Z,46.20
2023-01-12T17:50:05.033Z,42.20
2023-01-12T17:52:32.361Z,47.70
2023-01-12T17:54:59.337Z,55.50
2023-01-12T17:57:27.325Z,51.50
2023-01-12T17:59:54.290Z,43.40
2023-01-12T18:02:21.645Z,49.00
2023-01-12T18:04:48.666Z,47.90
2023-01-12T18:07:15.577Z,58.50
2023-01-12T18:09:42.556Z,57.40
2023-01-12T18:12:10.626Z,48.20
2023-01-12T18:14:37.793Z,52.60
2023-01-12T18:17:04.709Z,58.20
2023-01-12T18:19:31.863Z,55.50
2023-01-12T18:21:59.052Z,61.20
2023-01-12T18:24:25.939Z,46.40
2023-01-12T18:26:52.815Z,48.90
2023-01-12T18:29:19.812Z,54.40
2023-01-12T18:31:47.442Z,47.20
2023-01-12T18:34:16.791Z,49.40
2023-01-12T18:36:43.943Z,43.80
2023-01-12T18:39:21.049Z,50.50
2023-01-12T18:42:07.940Z,45.00
2023-01-12T18:44:35.523Z,49.10
2023-01-12T18:47:22.226Z,53.60
2023-01-12T18:49:49.412Z,52.30
2023-01-12T18:52:36.203Z,46.90
2023-01-12T18:55:04.372Z,58.40
2023-01-12T18:57:31.817Z,59.00
2023-01-12T19:00:04.818Z,58.10
2023-01-12T19:02:31.886Z,60.60
2023-01-12T19:05:15.785Z,47.40
2023-01-12T19:08:05.088Z,45.50
2023-01-12T19:10:32.782Z,51.10
2023-01-12T19:13:18.668Z,58.50
2023-01-12T19:16:04.600Z,39.10
2023-01-12T19:18:31.748Z,50.90
2023-01-12T19:21:21.608Z,44.90
2023-01-12T19:24:07.572Z,46.60
2023-01-12T19:26:53.251Z,49.20
2023-01-12T19:29:20.129Z,41.30
2023-01-12T19:31:47.218Z,53.50
2023-01-12T19:34:14.233Z,43.50
2023-01-12T19:36:41.177Z,44.50
2023-01-12T19:39:09.761Z,52.90
2023-01-12T19:41:55.548Z,46.30
2023-01-12T19:44:22.432Z,45.50
2023-01-12T19:46:49.329Z,48.00
2023-01-12T19:49:17.790Z,47.20
2023-01-12T19:51:46.222Z,41.90
2023-01-12T19:54:13.287Z,41.30
2023-01-12T19:56:40.262Z,42.80
2023-01-12T19:59:07.300Z,31.00
2023-01-12T20:01:34.357Z,30.00
2023-01-12T20:04:01.447Z,25.50
2023-01-12T20:06:29.119Z,32.90
2023-01-12T20:08:55.976Z,26.70
2023-01-12T20:11:22.927Z,26.80
2023-01-12T20:13:49.901Z,33.90
2023-01-12T20:16:16.862Z,29.90
2023-01-12T20:18:43.793Z,26.60
2023-01-12T20:21:11.498Z,28.50
2023-01-12T20:23:38.719Z,35.20
2023-01-12T20:26:11.527Z,28.60
2023-01-12T20:28:38.488Z,23.90
2023-01-12T20:31:10.204Z,26.90
2023-01-12T20:33:37.167Z,29.00
2023-01-12T20:36:04.427Z,31.70
2023-01-12T20:38:31.376Z,24.60
2023-01-12T20:40:58.299Z,27.10
2023-01-12T20:43:25.276Z,27.10
2023-01-12T20:45:52.849Z,33.10
2023-01-12T20:48:19.830Z,26.60
2023-01-12T20:50:47.005Z,26.40
2023-01-12T20:53:14.241Z,30.60
2023-01-12T20:55:50.900Z,29.80
2023-01-12T20:58:18.114Z,29.00
2023-01-12T21:00:45.088Z,26.60
2023-01-12T21:03:12.191Z,36.80
2023-01-12T21:05:43.349Z,27.70
2023-01-12T21:08:10.782Z,22.00
2023-01-12T21:10:38.206Z,30.90
2023-01-12T21:13:05.579Z,23.40
2023-01-12T21:15:32.835Z,27.70
2023-01-12T21:17:59.789Z,22.30
2023-01-12T21:20:26.741Z,26.80
2023-01-12T21:22:53.556Z,34.30
2023-01-12T21:25:20.438Z,30.80
2023-01-12T21:27:47.291Z,27.70
2023-01-12T21:30:14.244Z,34.60
2023-01-12T21:32:43.654Z,26.30
2023-01-12T21:35:10.803Z,26.70
2023-01-12T21:37:38.058Z,20.90
2023-01-12T21:40:05.623Z,25.90
2023-01-12T21:42:51.277Z,21.00
2023-01-12T21:45:18.970Z,29.20
2023-01-12T21:47:46.454Z,27.20
2023-01-12T21:50:13.617Z,25.60
2023-01-12T21:52:42.120Z,27.50
2023-01-12T21:55:11.785Z,31.80
2023-01-12T21:57:39.001Z,24.90
2023-01-12T22:00:07.119Z,21.80
2023-01-12T22:02:38.891Z,26.10
2023-01-12T22:05:07.664Z,27.40
2023-01-12T22:07:34.509Z,24.20
2023-01-12T22:10:19.005Z,26.40
2023-01-12T22:12:47.462Z,25.00
2023-01-12T22:15:14.615Z,28.70
2023-01-12T22:17:42.030Z,30.20
2023-01-12T22:20:10.159Z,27.70
2023-01-12T22:22:40.284Z,30.00
2023-01-12T22:25:08.359Z,30.70
2023-01-12T22:27:35.762Z,30.40
2023-01-12T22:30:03.383Z,21.90
2023-01-12T22:32:30.294Z,32.10
2023-01-12T22:34:58.980Z,24.90
2023-01-12T22:37:26.956Z,32.30
2023-01-12T22:39:54.119Z,31.20
2023-01-12T22:42:21.683Z,29.40
2023-01-12T22:44:48.772Z,23.30
2023-01-12T22:47:15.833Z,35.80
2023-01-12T22:49:43.608Z,31.60
2023-01-12T22:52:10.682Z,30.90
2023-01-12T22:54:38.756Z,34.80
2023-01-12T22:57:07.020Z,25.50
2023-01-12T22:59:33.984Z,32.70
2023-01-12T23:02:21.010Z,29.50
2023-01-12T23:04:47.997Z,28.40
2023-01-12T23:07:19.394Z,33.90
2023-01-12T23:09:46.602Z,28.60
2023-01-12T23:12:13.475Z,32.40
2023-01-12T23:14:40.404Z,31.70
2023-01-12T23:17:07.509Z,32.90
2023-01-12T23:19:34.436Z,34.90
2023-01-12T23:22:01.269Z,37.20
2023-01-12T23:24:28.210Z,43.70
2023-01-12T23:26:55.187Z,35.30
2023-01-12T23:29:22.093Z,30.80
2023-01-12T23:31:49.019Z,30.80
2023-01-12T23:34:15.968Z,42.30
2023-01-12T23:36:42.854Z,33.00
2023-01-12T23:39:10.881Z,38.30
2023-01-12T23:41:38.120Z,35.90
2023-01-12T23:44:06.501Z,27.80
2023-01-12T23:46:35.480Z,33.40
2023-01-12T23:49:02.421Z,28.90
2023-01-12T23:51:29.489Z,39.90
2023-01-12T23:54:00.546Z,35.10
2023-01-12T23:56:31.954Z,29.50
2023-01-12T23:58:58.852Z,28.70
